sensor_id;sensor_type;location;lat;lon;timestamp;P1;durP1;ratioP1;P2;durP2;ratioP2
58621;SDS011;44389;51.578;5.456;2023-03-24T00:02:15;10.07;;;4.47;;
58621;SDS011;44389;51.578;5.456;2023-03-24T00:04:41;9.23;;;4.50;;
58621;SDS011;44389;51.578;5.456;2023-03-24T00:07:08;8.40;;;4.75;;
58621;SDS011;44389;51.578;5.456;2023-03-24T00:09:38;9.20;;;4.63;;
58621;SDS011;44389;51.578;5.456;2023-03-24T00:12:04;8.57;;;4.50;;
58621;SDS011;44389;51.578;5.456;2023-03-24T00:14:29;11.55;;;4.97;;
58621;SDS011;44389;51.578;5.456;2023-03-24T00:16:54;8.27;;;4.70;;
58621;SDS011;44389;51.578;5.456;2023-03-24T00:19:22;9.20;;;4.05;;
58621;SDS011;44389;51.578;5.456;2023-03-24T00:21:47;8.88;;;5.00;;
58621;SDS011;44389;51.578;5.456;2023-03-24T00:24:13;8.45;;;4.05;;
58621;SDS011;44389;51.578;5.456;2023-03-24T00:26:39;8.70;;;4.90;;
58621;SDS011;44389;51.578;5.456;2023-03-24T00:29:09;9.73;;;4.53;;
58621;SDS011;44389;51.578;5.456;2023-03-24T00:31:35;8.95;;;4.18;;
58621;SDS011;44389;51.578;5.456;2023-03-24T00:34:03;9.77;;;4.00;;
58621;SDS011;44389;51.578;5.456;2023-03-24T00:36:31;10.43;;;4.68;;
58621;SDS011;44389;51.578;5.456;2023-03-24T00:38:56;9.60;;;4.53;;
58621;SDS011;44389;51.578;5.456;2023-03-24T00:41:22;7.22;;;4.20;;
58621;SDS011;44389;51.578;5.456;2023-03-24T00:43:52;7.07;;;3.90;;
58621;SDS011;44389;51.578;5.456;2023-03-24T00:46:19;8.98;;;4.13;;
58621;SDS011;44389;51.578;5.456;2023-03-24T00:48:54;10.02;;;4.22;;
58621;SDS011;44389;51.578;5.456;2023-03-24T00:51:31;6.63;;;3.80;;
58621;SDS011;44389;51.578;5.456;2023-03-24T00:53:59;6.13;;;3.55;;
58621;SDS011;44389;51.578;5.456;2023-03-24T00:56:26;6.75;;;3.58;;
58621;SDS011;44389;51.578;5.456;2023-03-24T00:58:53;7.03;;;3.60;;
58621;SDS011;44389;51.578;5.456;2023-03-24T01:01:22;6.03;;;3.00;;
58621;SDS011;44389;51.578;5.456;2023-03-24T01:03:48;6.38;;;3.40;;
58621;SDS011;44389;51.578;5.456;2023-03-24T01:06:15;7.15;;;3.70;;
58621;SDS011;44389;51.578;5.456;2023-03-24T01:08:42;5.80;;;3.20;;
58621;SDS011;44389;51.578;5.456;2023-03-24T01:11:07;8.23;;;3.05;;
58621;SDS011;44389;51.578;5.456;2023-03-24T01:13:33;6.70;;;3.50;;
58621;SDS011;44389;51.578;5.456;2023-03-24T01:15:58;7.72;;;3.95;;
58621;SDS011;44389;51.578;5.456;2023-03-24T01:18:24;6.80;;;3.70;;
58621;SDS011;44389;51.578;5.456;2023-03-24T01:20:49;9.77;;;3.70;;
58621;SDS011;44389;51.578;5.456;2023-03-24T01:23:19;6.38;;;3.45;;
58621;SDS011;44389;51.578;5.456;2023-03-24T01:25:47;9.02;;;3.83;;
58621;SDS011;44389;51.578;5.456;2023-03-24T01:28:15;6.90;;;3.60;;
58621;SDS011;44389;51.578;5.456;2023-03-24T01:30:42;6.03;;;3.75;;
58621;SDS011;44389;51.578;5.456;2023-03-24T01:33:07;7.75;;;3.90;;
58621;SDS011;44389;51.578;5.456;2023-03-24T01:35:33;9.10;;;4.05;;
58621;SDS011;44389;51.578;5.456;2023-03-24T01:37:59;8.98;;;3.88;;
58621;SDS011;44389;51.578;5.456;2023-03-24T01:40:27;6.75;;;3.78;;
58621;SDS011;44389;51.578;5.456;2023-03-24T01:42:55;10.18;;;4.28;;
58621;SDS011;44389;51.578;5.456;2023-03-24T01:48:24;6.53;;;3.72;;
58621;SDS011;44389;51.578;5.456;2023-03-24T01:50:57;8.20;;;4.15;;
58621;SDS011;44389;51.578;5.456;2023-03-24T01:53:26;8.48;;;4.15;;
58621;SDS011;44389;51.578;5.456;2023-03-24T01:55:54;7.85;;;3.80;;
58621;SDS011;44389;51.578;5.456;2023-03-24T01:58:20;6.63;;;4.25;;
58621;SDS011;44389;51.578;5.456;2023-03-24T02:00:49;7.25;;;4.03;;
58621;SDS011;44389;51.578;5.456;2023-03-24T02:03:15;6.55;;;3.75;;
58621;SDS011;44389;51.578;5.456;2023-03-24T02:05:45;7.25;;;3.97;;
58621;SDS011;44389;51.578;5.456;2023-03-24T02:08:37;8.77;;;4.35;;
58621;SDS011;44389;51.578;5.456;2023-03-24T02:11:02;8.27;;;3.90;;
58621;SDS011;44389;51.578;5.456;2023-03-24T02:13:27;9.60;;;4.32;;
58621;SDS011;44389;51.578;5.456;2023-03-24T02:16:06;8.43;;;4.40;;
58621;SDS011;44389;51.578;5.456;2023-03-24T02:18:40;9.75;;;4.60;;
58621;SDS011;44389;51.578;5.456;2023-03-24T02:29:55;10.82;;;5.20;;
58621;SDS011;44389;51.578;5.456;2023-03-24T02:32:42;9.23;;;5.15;;
58621;SDS011;44389;51.578;5.456;2023-03-24T02:37:44;7.20;;;5.00;;
58621;SDS011;44389;51.578;5.456;2023-03-24T02:43:13;8.82;;;5.25;;
58621;SDS011;44389;51.578;5.456;2023-03-24T02:45:57;7.13;;;4.80;;
58621;SDS011;44389;51.578;5.456;2023-03-24T02:56:58;8.50;;;4.97;;
58621;SDS011;44389;51.578;5.456;2023-03-24T02:59:40;8.75;;;4.85;;
58621;SDS011;44389;51.578;5.456;2023-03-24T03:02:13;8.75;;;5.28;;
58621;SDS011;44389;51.578;5.456;2023-03-24T03:04:46;8.55;;;5.45;;
58621;SDS011;44389;51.578;5.456;2023-03-24T03:07:18;7.50;;;4.68;;
58621;SDS011;44389;51.578;5.456;2023-03-24T03:09:52;6.05;;;4.55;;
58621;SDS011;44389;51.578;5.456;2023-03-24T03:12:25;7.20;;;4.97;;
58621;SDS011;44389;51.578;5.456;2023-03-24T03:14:55;6.53;;;3.78;;
58621;SDS011;44389;51.578;5.456;2023-03-24T03:17:30;8.18;;;3.83;;
58621;SDS011;44389;51.578;5.456;2023-03-24T03:20:01;6.65;;;3.30;;
58621;SDS011;44389;51.578;5.456;2023-03-24T03:22:42;5.47;;;3.30;;
58621;SDS011;44389;51.578;5.456;2023-03-24T03:25:13;11.25;;;2.83;;
58621;SDS011;44389;51.578;5.456;2023-03-24T03:27:42;4.72;;;2.00;;
58621;SDS011;44389;51.578;5.456;2023-03-24T03:35:41;6.68;;;1.60;;
58621;SDS011;44389;51.578;5.456;2023-03-24T03:38:19;7.50;;;1.95;;
58621;SDS011;44389;51.578;5.456;2023-03-24T03:40:58;7.18;;;1.83;;
58621;SDS011;44389;51.578;5.456;2023-03-24T03:43:27;7.38;;;1.98;;
58621;SDS011;44389;51.578;5.456;2023-03-24T03:45:54;12.05;;;2.88;;
58621;SDS011;44389;51.578;5.456;2023-03-24T03:48:20;6.22;;;1.95;;
58621;SDS011;44389;51.578;5.456;2023-03-24T03:50:45;7.45;;;1.95;;
58621;SDS011;44389;51.578;5.456;2023-03-24T03:53:12;7.57;;;2.30;;
58621;SDS011;44389;51.578;5.456;2023-03-24T03:55:40;11.73;;;2.72;;
58621;SDS011;44389;51.578;5.456;2023-03-24T03:58:06;6.88;;;2.60;;
58621;SDS011;44389;51.578;5.456;2023-03-24T04:00:32;11.18;;;3.33;;
58621;SDS011;44389;51.578;5.456;2023-03-24T04:05:37;9.48;;;5.38;;
58621;SDS011;44389;51.578;5.456;2023-03-24T04:08:44;13.88;;;6.20;;
58621;SDS011;44389;51.578;5.456;2023-03-24T04:20:02;16.17;;;6.65;;
58621;SDS011;44389;51.578;5.456;2023-03-24T04:34:27;16.48;;;6.28;;
58621;SDS011;44389;51.578;5.456;2023-03-24T04:36:59;16.02;;;5.90;;
58621;SDS011;44389;51.578;5.456;2023-03-24T04:39:30;13.18;;;5.35;;
58621;SDS011;44389;51.578;5.456;2023-03-24T04:42:03;14.13;;;5.65;;
58621;SDS011;44389;51.578;5.456;2023-03-24T04:44:31;13.15;;;4.85;;
58621;SDS011;44389;51.578;5.456;2023-03-24T04:46:58;10.82;;;4.68;;
58621;SDS011;44389;51.578;5.456;2023-03-24T04:49:25;10.77;;;3.80;;
58621;SDS011;44389;51.578;5.456;2023-03-24T04:51:51;16.95;;;4.43;;
58621;SDS011;44389;51.578;5.456;2023-03-24T04:54:17;13.70;;;4.03;;
58621;SDS011;44389;51.578;5.456;2023-03-24T04:56:52;14.57;;;3.58;;
58621;SDS011;44389;51.578;5.456;2023-03-24T04:59:21;12.07;;;3.28;;
58621;SDS011;44389;51.578;5.456;2023-03-24T05:01:46;13.50;;;3.40;;
58621;SDS011;44389;51.578;5.456;2023-03-24T05:04:19;16.15;;;3.47;;
58621;SDS011;44389;51.578;5.456;2023-03-24T05:06:46;17.08;;;3.95;;
58621;SDS011;44389;51.578;5.456;2023-03-24T05:09:13;15.15;;;3.80;;
58621;SDS011;44389;51.578;5.456;2023-03-24T05:11:39;13.55;;;3.83;;
58621;SDS011;44389;51.578;5.456;2023-03-24T05:14:05;15.85;;;4.20;;
58621;SDS011;44389;51.578;5.456;2023-03-24T05:16:30;14.40;;;3.88;;
58621;SDS011;44389;51.578;5.456;2023-03-24T05:18:55;16.38;;;4.57;;
58621;SDS011;44389;51.578;5.456;2023-03-24T05:21:21;18.00;;;4.68;;
58621;SDS011;44389;51.578;5.456;2023-03-24T05:23:46;17.70;;;4.82;;
58621;SDS011;44389;51.578;5.456;2023-03-24T05:26:11;22.00;;;6.00;;
58621;SDS011;44389;51.578;5.456;2023-03-24T05:28:36;23.88;;;5.45;;
58621;SDS011;44389;51.578;5.456;2023-03-24T05:31:02;23.23;;;5.75;;
58621;SDS011;44389;51.578;5.456;2023-03-24T05:33:27;24.80;;;6.25;;
58621;SDS011;44389;51.578;5.456;2023-03-24T05:35:53;19.98;;;5.20;;
58621;SDS011;44389;51.578;5.456;2023-03-24T05:38:18;18.58;;;5.82;;
58621;SDS011;44389;51.578;5.456;2023-03-24T05:40:43;17.08;;;5.60;;
58621;SDS011;44389;51.578;5.456;2023-03-24T05:43:08;17.58;;;5.38;;
58621;SDS011;44389;51.578;5.456;2023-03-24T05:45:36;15.93;;;4.72;;
58621;SDS011;44389;51.578;5.456;2023-03-24T05:48:01;16.77;;;5.40;;
58621;SDS011;44389;51.578;5.456;2023-03-24T05:50:27;18.48;;;5.30;;
58621;SDS011;44389;51.578;5.456;2023-03-24T05:52:52;20.73;;;5.05;;
58621;SDS011;44389;51.578;5.456;2023-03-24T05:55:18;18.40;;;4.13;;
58621;SDS011;44389;51.578;5.456;2023-03-24T05:57:43;17.02;;;4.25;;
58621;SDS011;44389;51.578;5.456;2023-03-24T06:00:09;20.85;;;5.38;;
58621;SDS011;44389;51.578;5.456;2023-03-24T06:02:41;19.25;;;5.70;;
58621;SDS011;44389;51.578;5.456;2023-03-24T06:05:06;16.85;;;4.57;;
58621;SDS011;44389;51.578;5.456;2023-03-24T06:07:33;16.23;;;4.70;;
58621;SDS011;44389;51.578;5.456;2023-03-24T06:09:59;16.38;;;5.18;;
58621;SDS011;44389;51.578;5.456;2023-03-24T06:12:27;15.65;;;5.03;;
58621;SDS011;44389;51.578;5.456;2023-03-24T06:14:54;24.27;;;5.85;;
58621;SDS011;44389;51.578;5.456;2023-03-24T06:17:20;21.95;;;5.63;;
58621;SDS011;44389;51.578;5.456;2023-03-24T06:19:46;18.02;;;4.68;;
58621;SDS011;44389;51.578;5.456;2023-03-24T06:22:17;16.08;;;4.60;;
58621;SDS011;44389;51.578;5.456;2023-03-24T06:24:43;18.52;;;5.38;;
58621;SDS011;44389;51.578;5.456;2023-03-24T06:27:11;21.83;;;4.75;;
58621;SDS011;44389;51.578;5.456;2023-03-24T06:29:38;21.05;;;4.47;;
58621;SDS011;44389;51.578;5.456;2023-03-24T06:32:06;20.10;;;4.15;;
58621;SDS011;44389;51.578;5.456;2023-03-24T06:34:32;20.88;;;4.28;;
58621;SDS011;44389;51.578;5.456;2023-03-24T06:36:58;26.00;;;4.63;;
58621;SDS011;44389;51.578;5.456;2023-03-24T06:39:23;20.05;;;4.32;;
58621;SDS011;44389;51.578;5.456;2023-03-24T06:41:49;22.05;;;3.80;;
58621;SDS011;44389;51.578;5.456;2023-03-24T06:44:14;18.25;;;3.83;;
58621;SDS011;44389;51.578;5.456;2023-03-24T06:46:40;19.15;;;4.40;;
58621;SDS011;44389;51.578;5.456;2023-03-24T06:49:05;22.33;;;4.68;;
58621;SDS011;44389;51.578;5.456;2023-03-24T06:51:31;18.75;;;4.57;;
58621;SDS011;44389;51.578;5.456;2023-03-24T06:53:57;25.85;;;5.15;;
58621;SDS011;44389;51.578;5.456;2023-03-24T06:56:22;20.60;;;4.80;;
58621;SDS011;44389;51.578;5.456;2023-03-24T06:58:47;20.55;;;4.43;;
58621;SDS011;44389;51.578;5.456;2023-03-24T07:01:13;20.85;;;4.75;;
58621;SDS011;44389;51.578;5.456;2023-03-24T07:03:39;23.65;;;4.05;;
58621;SDS011;44389;51.578;5.456;2023-03-24T07:06:05;22.27;;;4.82;;
58621;SDS011;44389;51.578;5.456;2023-03-24T07:08:31;22.98;;;4.97;;
58621;SDS011;44389;51.578;5.456;2023-03-24T07:10:57;22.63;;;4.78;;
58621;SDS011;44389;51.578;5.456;2023-03-24T07:13:23;21.25;;;4.65;;
58621;SDS011;44389;51.578;5.456;2023-03-24T07:15:49;21.50;;;4.88;;
58621;SDS011;44389;51.578;5.456;2023-03-24T07:18:15;23.58;;;4.50;;
58621;SDS011;44389;51.578;5.456;2023-03-24T07:20:40;25.77;;;4.55;;
58621;SDS011;44389;51.578;5.456;2023-03-24T07:23:06;28.73;;;4.75;;
58621;SDS011;44389;51.578;5.456;2023-03-24T07:25:31;21.77;;;4.30;;
58621;SDS011;44389;51.578;5.456;2023-03-24T07:27:56;17.90;;;3.65;;
58621;SDS011;44389;51.578;5.456;2023-03-24T07:30:22;21.35;;;4.10;;
58621;SDS011;44389;51.578;5.456;2023-03-24T07:32:48;27.35;;;4.55;;
58621;SDS011;44389;51.578;5.456;2023-03-24T07:35:14;23.45;;;4.03;;
58621;SDS011;44389;51.578;5.456;2023-03-24T07:37:41;26.05;;;4.47;;
58621;SDS011;44389;51.578;5.456;2023-03-24T07:40:06;23.30;;;4.68;;
58621;SDS011;44389;51.578;5.456;2023-03-24T07:42:35;26.90;;;4.30;;
58621;SDS011;44389;51.578;5.456;2023-03-24T07:45:01;22.52;;;5.40;;
58621;SDS011;44389;51.578;5.456;2023-03-24T07:47:26;15.82;;;4.00;;
58621;SDS011;44389;51.578;5.456;2023-03-24T07:49:51;20.33;;;4.40;;
58621;SDS011;44389;51.578;5.456;2023-03-24T07:52:17;23.20;;;4.45;;
58621;SDS011;44389;51.578;5.456;2023-03-24T07:54:42;33.70;;;4.78;;
58621;SDS011;44389;51.578;5.456;2023-03-24T07:57:07;20.85;;;4.32;;
58621;SDS011;44389;51.578;5.456;2023-03-24T07:59:32;18.50;;;4.55;;
58621;SDS011;44389;51.578;5.456;2023-03-24T08:01:58;21.10;;;4.35;;
58621;SDS011;44389;51.578;5.456;2023-03-24T08:04:24;22.92;;;3.97;;
58621;SDS011;44389;51.578;5.456;2023-03-24T08:06:51;20.35;;;4.35;;
58621;SDS011;44389;51.578;5.456;2023-03-24T08:09:17;21.33;;;4.32;;
58621;SDS011;44389;51.578;5.456;2023-03-24T08:11:43;21.58;;;4.65;;
58621;SDS011;44389;51.578;5.456;2023-03-24T08:14:08;18.25;;;4.50;;
58621;SDS011;44389;51.578;5.456;2023-03-24T08:16:33;19.05;;;4.20;;
58621;SDS011;44389;51.578;5.456;2023-03-24T08:18:59;21.10;;;4.28;;
58621;SDS011;44389;51.578;5.456;2023-03-24T08:21:24;18.38;;;4.13;;
58621;SDS011;44389;51.578;5.456;2023-03-24T08:23:50;17.27;;;4.00;;
58621;SDS011;44389;51.578;5.456;2023-03-24T08:26:16;19.88;;;5.15;;
58621;SDS011;44389;51.578;5.456;2023-03-24T08:28:41;19.35;;;4.70;;
58621;SDS011;44389;51.578;5.456;2023-03-24T08:31:07;16.02;;;4.00;;
58621;SDS011;44389;51.578;5.456;2023-03-24T08:33:32;21.83;;;4.68;;
58621;SDS011;44389;51.578;5.456;2023-03-24T08:35:58;19.20;;;4.60;;
58621;SDS011;44389;51.578;5.456;2023-03-24T08:38:25;20.30;;;4.22;;
58621;SDS011;44389;51.578;5.456;2023-03-24T08:40:58;22.15;;;4.30;;
58621;SDS011;44389;51.578;5.456;2023-03-24T08:43:26;22.23;;;4.78;;
58621;SDS011;44389;51.578;5.456;2023-03-24T08:45:55;21.50;;;4.25;;
58621;SDS011;44389;51.578;5.456;2023-03-24T08:48:21;17.77;;;4.00;;
58621;SDS011;44389;51.578;5.456;2023-03-24T08:50:47;20.55;;;4.38;;
58621;SDS011;44389;51.578;5.456;2023-03-24T08:53:13;17.05;;;4.20;;
58621;SDS011;44389;51.578;5.456;2023-03-24T08:55:38;18.23;;;3.92;;
58621;SDS011;44389;51.578;5.456;2023-03-24T08:58:07;22.42;;;4.80;;
58621;SDS011;44389;51.578;5.456;2023-03-24T09:00:40;17.15;;;4.60;;
58621;SDS011;44389;51.578;5.456;2023-03-24T09:03:05;20.08;;;4.25;;
58621;SDS011;44389;51.578;5.456;2023-03-24T09:05:31;17.20;;;4.85;;
58621;SDS011;44389;51.578;5.456;2023-03-24T09:07:56;19.63;;;4.38;;
58621;SDS011;44389;51.578;5.456;2023-03-24T09:10:24;18.48;;;5.22;;
58621;SDS011;44389;51.578;5.456;2023-03-24T09:12:50;17.92;;;4.63;;
58621;SDS011;44389;51.578;5.456;2023-03-24T09:15:16;18.10;;;5.20;;
58621;SDS011;44389;51.578;5.456;2023-03-24T09:17:41;21.30;;;4.93;;
58621;SDS011;44389;51.578;5.456;2023-03-24T09:20:08;18.92;;;4.80;;
58621;SDS011;44389;51.578;5.456;2023-03-24T09:22:36;17.33;;;4.10;;
58621;SDS011;44389;51.578;5.456;2023-03-24T09:25:03;17.60;;;4.38;;
58621;SDS011;44389;51.578;5.456;2023-03-24T09:27:29;20.08;;;5.25;;
58621;SDS011;44389;51.578;5.456;2023-03-24T09:29:55;18.70;;;4.43;;
58621;SDS011;44389;51.578;5.456;2023-03-24T09:32:20;17.17;;;4.68;;
58621;SDS011;44389;51.578;5.456;2023-03-24T09:34:46;15.80;;;4.45;;
58621;SDS011;44389;51.578;5.456;2023-03-24T09:37:13;17.50;;;4.07;;
58621;SDS011;44389;51.578;5.456;2023-03-24T09:42:04;12.00;;;4.50;;
58621;SDS011;44389;51.578;5.456;2023-03-24T09:44:36;13.27;;;4.40;;
58621;SDS011;44389;51.578;5.456;2023-03-24T09:47:08;14.40;;;5.05;;
58621;SDS011;44389;51.578;5.456;2023-03-24T09:49:38;21.13;;;5.68;;
58621;SDS011;44389;51.578;5.456;2023-03-24T09:54:37;20.25;;;4.60;;
58621;SDS011;44389;51.578;5.456;2023-03-24T09:57:36;19.30;;;5.68;;
58621;SDS011;44389;51.578;5.456;2023-03-24T10:00:23;14.18;;;4.63;;
58621;SDS011;44389;51.578;5.456;2023-03-24T10:02:51;15.52;;;5.00;;
58621;SDS011;44389;51.578;5.456;2023-03-24T10:05:21;15.55;;;4.45;;
58621;SDS011;44389;51.578;5.456;2023-03-24T10:13:05;22.63;;;4.22;;
58621;SDS011;44389;51.578;5.456;2023-03-24T10:15:39;15.68;;;4.03;;
58621;SDS011;44389;51.578;5.456;2023-03-24T10:21:09;15.55;;;3.83;;
58621;SDS011;44389;51.578;5.456;2023-03-24T10:32:25;20.52;;;4.60;;
58621;SDS011;44389;51.578;5.456;2023-03-24T10:34:54;15.52;;;3.85;;
58621;SDS011;44389;51.578;5.456;2023-03-24T10:37:24;15.98;;;3.40;;
58621;SDS011;44389;51.578;5.456;2023-03-24T10:39:51;15.20;;;3.83;;
58621;SDS011;44389;51.578;5.456;2023-03-24T10:42:17;17.98;;;4.10;;
58621;SDS011;44389;51.578;5.456;2023-03-24T10:44:46;22.20;;;4.20;;
58621;SDS011;44389;51.578;5.456;2023-03-24T10:47:13;12.15;;;3.47;;
58621;SDS011;44389;51.578;5.456;2023-03-24T10:52:39;13.93;;;2.90;;
58621;SDS011;44389;51.578;5.456;2023-03-24T10:55:06;12.73;;;3.35;;
58621;SDS011;44389;51.578;5.456;2023-03-24T10:57:43;15.20;;;3.03;;
58621;SDS011;44389;51.578;5.456;2023-03-24T11:00:17;14.23;;;3.28;;
58621;SDS011;44389;51.578;5.456;2023-03-24T11:03:05;9.02;;;2.45;;
58621;SDS011;44389;51.578;5.456;2023-03-24T11:05:37;15.23;;;3.20;;
58621;SDS011;44389;51.578;5.456;2023-03-24T11:10:45;10.82;;;2.80;;
58621;SDS011;44389;51.578;5.456;2023-03-24T11:13:32;15.10;;;3.30;;
58621;SDS011;44389;51.578;5.456;2023-03-24T11:21:30;9.63;;;2.58;;
58621;SDS011;44389;51.578;5.456;2023-03-24T11:24:00;11.95;;;3.05;;
58621;SDS011;44389;51.578;5.456;2023-03-24T11:26:29;13.20;;;3.38;;
58621;SDS011;44389;51.578;5.456;2023-03-24T11:29:00;10.18;;;2.88;;
58621;SDS011;44389;51.578;5.456;2023-03-24T11:31:31;15.02;;;3.72;;
58621;SDS011;44389;51.578;5.456;2023-03-24T11:34:05;14.93;;;3.63;;
58621;SDS011;44389;51.578;5.456;2023-03-24T11:39:27;13.27;;;3.30;;
58621;SDS011;44389;51.578;5.456;2023-03-24T11:41:59;9.35;;;3.13;;
58621;SDS011;44389;51.578;5.456;2023-03-24T11:44:25;12.02;;;3.17;;
58621;SDS011;44389;51.578;5.456;2023-03-24T11:46:56;15.27;;;2.90;;
58621;SDS011;44389;51.578;5.456;2023-03-24T11:49:29;11.50;;;3.33;;
58621;SDS011;44389;51.578;5.456;2023-03-24T11:51:56;15.02;;;3.92;;
58621;SDS011;44389;51.578;5.456;2023-03-24T11:54:29;13.18;;;3.33;;
58621;SDS011;44389;51.578;5.456;2023-03-24T11:57:01;16.63;;;5.43;;
58621;SDS011;44389;51.578;5.456;2023-03-24T11:59:41;15.48;;;4.28;;
58621;SDS011;44389;51.578;5.456;2023-03-24T12:04:44;11.65;;;3.03;;
58621;SDS011;44389;51.578;5.456;2023-03-24T12:13:40;10.95;;;3.33;;
58621;SDS011;44389;51.578;5.456;2023-03-24T12:16:15;12.82;;;4.25;;
58621;SDS011;44389;51.578;5.456;2023-03-24T12:19:18;9.82;;;3.60;;
58621;SDS011;44389;51.578;5.456;2023-03-24T12:22:18;11.45;;;3.88;;
58621;SDS011;44389;51.578;5.456;2023-03-24T12:33:04;6.15;;;1.65;;
58621;SDS011;44389;51.578;5.456;2023-03-24T12:35:59;9.32;;;2.38;;
58621;SDS011;44389;51.578;5.456;2023-03-24T12:38:53;5.60;;;1.97;;
58621;SDS011;44389;51.578;5.456;2023-03-24T12:44:16;5.50;;;1.35;;
58621;SDS011;44389;51.578;5.456;2023-03-24T12:46:58;6.93;;;2.50;;
58621;SDS011;44389;51.578;5.456;2023-03-24T12:49:30;4.53;;;1.95;;
58621;SDS011;44389;51.578;5.456;2023-03-24T12:57:56;8.65;;;1.63;;
58621;SDS011;44389;51.578;5.456;2023-03-24T13:00:27;6.85;;;1.42;;
58621;SDS011;44389;51.578;5.456;2023-03-24T13:03:15;6.32;;;1.77;;
58621;SDS011;44389;51.578;5.456;2023-03-24T13:05:48;4.43;;;1.20;;
58621;SDS011;44389;51.578;5.456;2023-03-24T13:08:20;11.63;;;1.90;;
58621;SDS011;44389;51.578;5.456;2023-03-24T13:10:53;11.30;;;1.40;;
58621;SDS011;44389;51.578;5.456;2023-03-24T13:13:34;5.30;;;1.42;;
58621;SDS011;44389;51.578;5.456;2023-03-24T13:16:05;4.75;;;1.45;;
58621;SDS011;44389;51.578;5.456;2023-03-24T13:18:41;5.03;;;1.75;;
58621;SDS011;44389;51.578;5.456;2023-03-24T13:21:12;7.43;;;1.75;;
58621;SDS011;44389;51.578;5.456;2023-03-24T13:26:41;9.27;;;2.22;;
58621;SDS011;44389;51.578;5.456;2023-03-24T13:35:19;8.93;;;2.40;;
58621;SDS011;44389;51.578;5.456;2023-03-24T13:38:09;9.55;;;2.53;;
58621;SDS011;44389;51.578;5.456;2023-03-24T13:40:50;8.55;;;2.47;;
58621;SDS011;44389;51.578;5.456;2023-03-24T13:43:18;13.07;;;2.83;;
58621;SDS011;44389;51.578;5.456;2023-03-24T13:46:05;10.85;;;2.78;;
58621;SDS011;44389;51.578;5.456;2023-03-24T13:48:37;10.23;;;2.70;;
58621;SDS011;44389;51.578;5.456;2023-03-24T13:51:24;10.07;;;2.72;;
58621;SDS011;44389;51.578;5.456;2023-03-24T13:53:58;8.25;;;2.78;;
58621;SDS011;44389;51.578;5.456;2023-03-24T13:56:31;10.23;;;2.85;;
58621;SDS011;44389;51.578;5.456;2023-03-24T14:07:28;10.02;;;3.13;;
58621;SDS011;44389;51.578;5.456;2023-03-24T14:09:57;14.15;;;3.70;;
58621;SDS011;44389;51.578;5.456;2023-03-24T14:13:00;13.38;;;3.80;;
58621;SDS011;44389;51.578;5.456;2023-03-24T14:15:31;9.30;;;2.75;;
58621;SDS011;44389;51.578;5.456;2023-03-24T14:23:35;10.98;;;2.63;;
58621;SDS011;44389;51.578;5.456;2023-03-24T14:26:14;11.40;;;3.03;;
58621;SDS011;44389;51.578;5.456;2023-03-24T14:28:54;11.02;;;2.85;;
58621;SDS011;44389;51.578;5.456;2023-03-24T14:31:22;9.18;;;2.30;;
58621;SDS011;44389;51.578;5.456;2023-03-24T14:36:24;10.83;;;2.53;;
58621;SDS011;44389;51.578;5.456;2023-03-24T14:38:54;8.07;;;2.30;;
58621;SDS011;44389;51.578;5.456;2023-03-24T14:41:29;8.17;;;2.20;;
58621;SDS011;44389;51.578;5.456;2023-03-24T14:44:02;6.55;;;2.22;;
58621;SDS011;44389;51.578;5.456;2023-03-24T14:54:15;10.35;;;2.90;;
58621;SDS011;44389;51.578;5.456;2023-03-24T14:56:44;7.88;;;2.45;;
58621;SDS011;44389;51.578;5.456;2023-03-24T15:07:37;8.23;;;2.50;;
58621;SDS011;44389;51.578;5.456;2023-03-24T15:10:03;7.60;;;2.50;;
58621;SDS011;44389;51.578;5.456;2023-03-24T15:12:29;7.03;;;2.65;;
58621;SDS011;44389;51.578;5.456;2023-03-24T15:14:54;11.70;;;3.10;;
58621;SDS011;44389;51.578;5.456;2023-03-24T15:17:20;9.02;;;2.78;;
58621;SDS011;44389;51.578;5.456;2023-03-24T15:22:17;8.98;;;2.60;;
58621;SDS011;44389;51.578;5.456;2023-03-24T15:24:45;10.93;;;2.97;;
58621;SDS011;44389;51.578;5.456;2023-03-24T15:27:13;13.10;;;2.85;;
58621;SDS011;44389;51.578;5.456;2023-03-24T15:29:44;8.88;;;2.72;;
58621;SDS011;44389;51.578;5.456;2023-03-24T15:32:17;10.32;;;3.28;;
58621;SDS011;44389;51.578;5.456;2023-03-24T15:37:19;10.15;;;2.60;;
58621;SDS011;44389;51.578;5.456;2023-03-24T15:39:55;9.30;;;2.70;;
58621;SDS011;44389;51.578;5.456;2023-03-24T15:42:21;8.80;;;2.25;;
58621;SDS011;44389;51.578;5.456;2023-03-24T15:44:48;10.50;;;2.08;;
58621;SDS011;44389;51.578;5.456;2023-03-24T15:47:27;9.55;;;2.03;;
58621;SDS011;44389;51.578;5.456;2023-03-24T15:49:57;7.60;;;1.90;;
58621;SDS011;44389;51.578;5.456;2023-03-24T15:52:31;8.63;;;2.05;;
58621;SDS011;44389;51.578;5.456;2023-03-24T15:57:55;6.47;;;2.00;;
58621;SDS011;44389;51.578;5.456;2023-03-24T16:00:25;9.75;;;2.35;;
58621;SDS011;44389;51.578;5.456;2023-03-24T16:02:53;8.95;;;2.53;;
58621;SDS011;44389;51.578;5.456;2023-03-24T16:05:21;13.73;;;2.97;;
58621;SDS011;44389;51.578;5.456;2023-03-24T16:12:57;13.45;;;2.83;;
58621;SDS011;44389;51.578;5.456;2023-03-24T16:15:28;8.68;;;2.50;;
58621;SDS011;44389;51.578;5.456;2023-03-24T16:17:53;13.27;;;2.38;;
58621;SDS011;44389;51.578;5.456;2023-03-24T16:20:19;12.27;;;2.70;;
58621;SDS011;44389;51.578;5.456;2023-03-24T16:22:45;8.52;;;2.10;;
58621;SDS011;44389;51.578;5.456;2023-03-24T16:25:11;11.25;;;2.58;;
58621;SDS011;44389;51.578;5.456;2023-03-24T16:27:38;10.40;;;2.30;;
58621;SDS011;44389;51.578;5.456;2023-03-24T16:30:16;10.30;;;2.85;;
58621;SDS011;44389;51.578;5.456;2023-03-24T16:32:45;8.27;;;2.22;;
58621;SDS011;44389;51.578;5.456;2023-03-24T16:35:10;9.70;;;2.30;;
58621;SDS011;44389;51.578;5.456;2023-03-24T16:37:36;9.10;;;2.45;;
58621;SDS011;44389;51.578;5.456;2023-03-24T16:40:01;9.48;;;2.33;;
58621;SDS011;44389;51.578;5.456;2023-03-24T16:42:28;11.30;;;2.33;;
58621;SDS011;44389;51.578;5.456;2023-03-24T16:44:54;8.55;;;2.28;;
58621;SDS011;44389;51.578;5.456;2023-03-24T16:47:19;11.77;;;2.42;;
58621;SDS011;44389;51.578;5.456;2023-03-24T16:49:45;8.43;;;2.05;;
58621;SDS011;44389;51.578;5.456;2023-03-24T16:52:11;9.93;;;2.25;;
58621;SDS011;44389;51.578;5.456;2023-03-24T16:54:37;10.25;;;2.45;;
58621;SDS011;44389;51.578;5.456;2023-03-24T16:57:02;10.63;;;2.22;;
58621;SDS011;44389;51.578;5.456;2023-03-24T16:59:27;8.38;;;2.05;;
58621;SDS011;44389;51.578;5.456;2023-03-24T17:01:53;9.95;;;2.42;;
58621;SDS011;44389;51.578;5.456;2023-03-24T17:04:20;8.50;;;2.13;;
58621;SDS011;44389;51.578;5.456;2023-03-24T17:06:50;8.60;;;2.20;;
58621;SDS011;44389;51.578;5.456;2023-03-24T17:09:17;6.32;;;2.00;;
58621;SDS011;44389;51.578;5.456;2023-03-24T17:11:43;12.57;;;2.50;;
58621;SDS011;44389;51.578;5.456;2023-03-24T17:14:13;8.95;;;2.47;;
58621;SDS011;44389;51.578;5.456;2023-03-24T17:16:39;11.15;;;2.10;;
58621;SDS011;44389;51.578;5.456;2023-03-24T17:19:11;9.82;;;2.38;;
58621;SDS011;44389;51.578;5.456;2023-03-24T17:21:39;11.27;;;2.30;;
58621;SDS011;44389;51.578;5.456;2023-03-24T17:24:42;8.50;;;2.47;;
58621;SDS011;44389;51.578;5.456;2023-03-24T17:27:12;9.57;;;2.47;;
58621;SDS011;44389;51.578;5.456;2023-03-24T17:29:40;10.77;;;2.47;;
58621;SDS011;44389;51.578;5.456;2023-03-24T17:32:06;10.10;;;2.40;;
58621;SDS011;44389;51.578;5.456;2023-03-24T17:34:32;11.60;;;3.05;;
58621;SDS011;44389;51.578;5.456;2023-03-24T17:36:57;11.70;;;2.78;;
58621;SDS011;44389;51.578;5.456;2023-03-24T17:39:23;8.93;;;2.33;;
58621;SDS011;44389;51.578;5.456;2023-03-24T17:41:48;9.70;;;2.63;;
58621;SDS011;44389;51.578;5.456;2023-03-24T17:44:14;10.70;;;2.55;;
58621;SDS011;44389;51.578;5.456;2023-03-24T17:46:39;12.75;;;3.25;;